createdAt,value
2018-05-10T00:00:09.746Z,56.66
2018-05-10T00:01:09.791Z,56.09
2018-05-10T00:02:09.811Z,56.57
2018-05-10T00:03:09.844Z,56.47
2018-05-10T00:04:09.866Z,56.09
2018-05-10T00:05:09.900Z,56.09
2018-05-10T00:06:09.936Z,56.18
2018-05-10T00:07:09.956Z,56.09
2018-05-10T00:08:09.980Z,56.85
2018-05-10T00:09:10.011Z,56.47
2018-05-10T00:10:10.046Z,56.57
2018-05-10T00:11:10.075Z,56.95
2018-05-10T00:12:10.100Z,56.95
2018-05-10T00:13:10.181Z,57.05
2018-05-10T00:14:10.160Z,57.05
2018-05-10T00:15:10.190Z,57.24
2018-05-10T00:16:10.219Z,57.62
2018-05-10T00:17:10.250Z,57.34
2018-05-10T00:18:10.275Z,57.43
2018-05-10T00:19:10.314Z,57.14
2018-05-10T00:20:10.340Z,57.62
2018-05-10T00:21:10.365Z,57.43
2018-05-10T00:22:10.393Z,57.53
2018-05-10T00:23:10.423Z,57.43
2018-05-10T00:24:10.451Z,57.92
2018-05-10T00:25:10.487Z,57.43
2018-05-10T00:26:10.512Z,57.72
2018-05-10T00:27:10.539Z,58.01
2018-05-10T00:28:10.565Z,57.53
2018-05-10T00:29:10.609Z,57.79
2018-05-10T00:30:10.628Z,57.53
2018-05-10T00:31:10.657Z,57.98
2018-05-10T00:32:10.691Z,58.40
2018-05-10T00:33:10.727Z,58.17
2018-05-10T00:34:10.745Z,57.98
2018-05-10T00:35:10.772Z,57.89
2018-05-10T00:36:10.800Z,58.08
2018-05-10T00:37:10.830Z,58.01
2018-05-10T00:38:10.860Z,57.89
2018-05-10T00:39:10.889Z,58.27
2018-05-10T00:40:10.919Z,57.69
2018-05-10T00:41:10.953Z,58.08
2018-05-10T00:42:10.978Z,58.85
2018-05-10T00:43:11.009Z,58.65
2018-05-10T00:44:11.034Z,58.65
2018-05-10T00:45:11.065Z,58.65
2018-05-10T00:46:11.091Z,58.47
2018-05-10T00:47:11.126Z,59.14
2018-05-10T00:48:11.150Z,58.65
2018-05-10T00:49:11.180Z,58.65
2018-05-10T00:50:11.210Z,58.65
2018-05-10T00:51:11.257Z,58.95
2018-05-10T00:52:11.267Z,59.14
2018-05-10T00:53:11.296Z,58.75
2018-05-10T00:54:11.325Z,59.04
2018-05-10T00:55:11.358Z,59.23
2018-05-10T00:56:11.387Z,59.72
2018-05-10T00:57:11.415Z,59.62
2018-05-10T00:58:11.442Z,59.81
2018-05-10T00:59:11.469Z,59.52
2018-05-10T01:00:11.503Z,59.52
2018-05-10T01:01:11.528Z,59.43
2018-05-10T01:02:11.559Z,59.14
2018-05-10T01:03:11.590Z,59.52
2018-05-10T01:04:11.616Z,59.52
2018-05-10T01:05:11.644Z,59.81
2018-05-10T01:06:11.671Z,59.62
2018-05-10T01:07:11.703Z,59.78
2018-05-10T01:08:11.735Z,59.59
2018-05-10T01:09:11.764Z,59.78
2018-05-10T01:10:11.788Z,60.07
2018-05-10T01:11:11.823Z,60.36
2018-05-10T01:12:11.846Z,60.46
2018-05-10T01:13:11.874Z,60.94
2018-05-10T01:14:11.905Z,61.04
2018-05-10T01:15:11.934Z,59.97
2018-05-10T01:16:11.965Z,60.65
2018-05-10T01:17:11.990Z,60.46
2018-05-10T01:18:12.019Z,60.94
2018-05-10T01:19:12.052Z,60.65
2018-05-10T01:20:12.078Z,61.22
2018-05-10T01:21:12.109Z,61.42
2018-05-10T01:22:12.137Z,61.22
2018-05-10T01:23:12.164Z,61.52
2018-05-10T01:24:12.194Z,61.71
2018-05-10T01:25:12.224Z,60.94
2018-05-10T01:26:12.258Z,61.13
2018-05-10T01:27:12.282Z,60.65
2018-05-10T01:28:12.308Z,61.13
2018-05-10T01:29:12.340Z,61.22
2018-05-10T01:30:12.368Z,61.42
2018-05-10T01:31:12.396Z,61.42
2018-05-10T01:32:12.427Z,61.42
2018-05-10T01:33:12.452Z,61.52
2018-05-10T01:34:12.486Z,61.52
2018-05-10T01:35:12.512Z,61.32
2018-05-10T01:36:12.543Z,61.22
2018-05-10T01:37:12.569Z,61.42
2018-05-10T01:38:12.597Z,61.97
2018-05-10T01:39:12.627Z,61.97
2018-05-10T01:40:12.657Z,61.77
2018-05-10T01:41:12.685Z,61.97
2018-05-10T01:42:12.717Z,62.06
2018-05-10T01:43:12.737Z,61.68
2018-05-10T01:44:12.771Z,61.58
2018-05-10T01:45:12.802Z,62.16
2018-05-10T01:46:12.829Z,61.77
2018-05-10T01:47:12.862Z,61.77
2018-05-10T01:48:12.883Z,61.68
2018-05-10T01:49:12.913Z,62.26
2018-05-10T01:50:12.947Z,61.58
2018-05-10T01:51:12.968Z,62.06
2018-05-10T01:52:13.004Z,62.26
2018-05-10T01:53:13.033Z,62.26
2018-05-10T01:54:13.059Z,62.26
2018-05-10T01:55:13.094Z,62.06
2018-05-10T01:56:13.113Z,62.16
2018-05-10T01:57:13.146Z,61.77
2018-05-10T01:58:13.177Z,62.06
2018-05-10T01:59:13.218Z,61.68
2018-05-10T02:00:13.227Z,62.35
2018-05-10T02:01:13.257Z,62.00
2018-05-10T02:02:13.286Z,61.77
2018-05-10T02:03:13.320Z,61.77
2018-05-10T02:04:13.350Z,61.87
2018-05-10T02:05:13.377Z,62.06
2018-05-10T02:06:13.405Z,62.26
2018-05-10T02:07:13.431Z,61.97
2018-05-10T02:08:13.486Z,61.68
2018-05-10T02:09:13.493Z,61.87
2018-05-10T02:10:13.516Z,62.16
2018-05-10T02:11:13.547Z,61.87
2018-05-10T02:12:13.578Z,62.06
2018-05-10T02:13:13.602Z,61.68
2018-05-10T02:14:13.633Z,61.68
2018-05-10T02:15:13.662Z,62.26
2018-05-10T02:16:13.690Z,61.90
2018-05-10T02:17:13.725Z,61.58
2018-05-10T02:18:13.750Z,61.58
2018-05-10T02:19:13.775Z,61.68
2018-05-10T02:20:13.804Z,62.06
2018-05-10T02:21:13.830Z,61.87
2018-05-10T02:22:13.866Z,62.54
2018-05-10T02:23:13.892Z,62.45
2018-05-10T02:24:13.921Z,62.06
2018-05-10T02:25:13.949Z,62.54
2018-05-10T02:26:13.979Z,62.16
2018-05-10T02:27:14.006Z,62.26
2018-05-10T02:28:14.034Z,62.16
2018-05-10T02:29:14.062Z,62.26
2018-05-10T02:30:14.091Z,62.06
2018-05-10T02:31:14.121Z,62.35
2018-05-10T02:32:14.154Z,62.74
2018-05-10T02:33:14.181Z,62.83
2018-05-10T02:34:14.207Z,62.83
2018-05-10T02:35:14.234Z,62.74
2018-05-10T02:36:14.305Z,63.12
2018-05-10T02:37:14.298Z,63.89
2018-05-10T02:38:14.324Z,63.99
2018-05-10T02:39:14.350Z,63.79
2018-05-10T02:40:14.380Z,64.28
2018-05-10T02:41:14.415Z,64.25
2018-05-10T02:42:14.439Z,63.95
2018-05-10T02:43:14.474Z,64.63
2018-05-10T02:44:14.489Z,64.63
2018-05-10T02:45:14.524Z,64.15
2018-05-10T02:46:14.551Z,64.63
2018-05-10T02:47:14.578Z,64.34
2018-05-10T02:48:14.609Z,63.95
2018-05-10T02:49:14.637Z,64.34
2018-05-10T02:50:14.666Z,64.63
2018-05-10T02:51:14.697Z,64.53
2018-05-10T02:52:14.733Z,64.73
2018-05-10T02:53:14.754Z,64.53
2018-05-10T02:54:14.785Z,64.15
2018-05-10T02:55:14.803Z,64.53
2018-05-10T02:56:14.842Z,64.25
2018-05-10T02:57:14.872Z,65.01
2018-05-10T02:58:14.894Z,64.47
2018-05-10T02:59:14.919Z,64.95
2018-05-10T03:00:14.954Z,64.34
2018-05-10T03:01:14.980Z,64.25
2018-05-10T03:02:15.012Z,64.63
2018-05-10T03:03:15.033Z,65.40
2018-05-10T03:04:15.068Z,65.11
2018-05-10T03:05:15.097Z,65.01
2018-05-10T03:06:15.123Z,65.01
2018-05-10T03:07:15.153Z,64.82
2018-05-10T03:08:15.186Z,64.82
2018-05-10T03:09:15.209Z,64.53
2018-05-10T03:10:15.234Z,64.82
2018-05-10T03:11:15.266Z,64.92
2018-05-10T03:12:15.294Z,65.30
2018-05-10T03:13:15.322Z,65.20
2018-05-10T03:14:15.351Z,65.40
2018-05-10T03:15:15.378Z,65.20
2018-05-10T03:16:15.408Z,65.30
2018-05-10T03:17:15.435Z,65.30
2018-05-10T03:18:15.494Z,65.40
2018-05-10T03:19:15.499Z,65.69
2018-05-10T03:20:15.524Z,65.01
2018-05-10T03:21:15.550Z,65.01
2018-05-10T03:22:15.578Z,65.20
2018-05-10T03:23:15.612Z,65.50
2018-05-10T03:24:15.640Z,64.82
2018-05-10T03:25:15.669Z,65.20
2018-05-10T03:26:15.692Z,65.59
2018-05-10T03:27:15.720Z,65.88
2018-05-10T03:28:15.754Z,65.94
2018-05-10T03:29:15.779Z,65.59
2018-05-10T03:30:15.803Z,65.69
2018-05-10T03:31:15.832Z,65.59
2018-05-10T03:32:15.867Z,65.88
2018-05-10T03:33:15.986Z,66.55
2018-05-10T03:34:15.918Z,66.27
2018-05-10T03:35:15.950Z,66.61
2018-05-10T03:36:15.977Z,66.61
2018-05-10T03:37:16.011Z,66.52
2018-05-10T03:38:16.037Z,66.42
2018-05-10T03:39:16.062Z,66.52
2018-05-10T03:40:16.095Z,66.71
2018-05-10T03:41:16.122Z,66.07
2018-05-10T03:42:16.143Z,65.97
2018-05-10T03:43:16.176Z,65.97
2018-05-10T03:44:16.205Z,65.75
2018-05-10T03:45:16.236Z,66.61
2018-05-10T03:46:16.287Z,66.61
2018-05-10T03:47:16.291Z,66.71
2018-05-10T03:48:16.315Z,66.52
2018-05-10T03:49:16.351Z,65.94
2018-05-10T03:50:16.377Z,66.52
2018-05-10T03:51:16.400Z,66.04
2018-05-10T03:52:16.436Z,66.04
2018-05-10T03:53:16.457Z,65.66
2018-05-10T03:54:16.482Z,66.04
2018-05-10T03:55:16.511Z,66.61
2018-05-10T03:56:16.547Z,66.71
2018-05-10T03:57:16.570Z,65.94
2018-05-10T03:58:16.606Z,66.42
2018-05-10T03:59:16.655Z,65.75
2018-05-10T04:00:16.652Z,65.84
2018-05-10T04:01:16.686Z,65.84
2018-05-10T04:02:16.713Z,65.75
2018-05-10T04:03:16.737Z,65.84
2018-05-10T04:04:16.770Z,66.04
2018-05-10T04:05:16.791Z,65.37
2018-05-10T04:06:16.823Z,65.88
2018-05-10T04:07:16.863Z,65.94
2018-05-10T04:08:16.877Z,66.23
2018-05-10T04:09:16.907Z,66.04
2018-05-10T04:10:16.935Z,66.91
2018-05-10T04:11:16.966Z,67.00
2018-05-10T04:12:16.991Z,67.10
2018-05-10T04:13:17.026Z,66.81
2018-05-10T04:14:17.050Z,67.29
2018-05-10T04:15:17.081Z,67.58
2018-05-10T04:16:17.102Z,67.29
2018-05-10T04:17:17.140Z,67.29
2018-05-10T04:18:17.160Z,67.29
2018-05-10T04:19:17.189Z,67.68
2018-05-10T04:20:17.217Z,67.58
2018-05-10T04:21:17.247Z,67.29
2018-05-10T04:22:17.271Z,67.58
2018-05-10T04:23:17.303Z,67.19
2018-05-10T04:24:17.332Z,66.94
2018-05-10T04:25:17.357Z,66.94
2018-05-10T04:26:17.387Z,66.94
2018-05-10T04:27:17.510Z,67.00
2018-05-10T04:28:17.446Z,67.48
2018-05-10T04:29:17.470Z,67.29
2018-05-10T04:30:17.497Z,67.58
2018-05-10T04:31:17.527Z,67.38
2018-05-10T04:32:17.558Z,67.29
2018-05-10T04:33:17.588Z,67.48
2018-05-10T04:34:17.611Z,67.10
2018-05-10T04:35:17.641Z,66.91
2018-05-10T04:36:17.665Z,66.61
2018-05-10T04:37:17.696Z,66.94
2018-05-10T04:38:17.726Z,66.91
2018-05-10T04:39:17.757Z,67.19
2018-05-10T04:40:17.780Z,67.29
2018-05-10T04:41:17.811Z,67.00
2018-05-10T04:42:17.922Z,66.81
2018-05-10T04:43:17.869Z,67.29
2018-05-10T04:44:17.899Z,67.03
2018-05-10T04:45:17.923Z,67.03
2018-05-10T04:46:17.952Z,67.03
2018-05-10T04:47:17.981Z,67.03
2018-05-10T04:48:18.005Z,67.22
2018-05-10T04:49:18.035Z,67.03
2018-05-10T04:50:18.062Z,67.13
2018-05-10T04:51:18.095Z,67.03
2018-05-10T04:52:18.124Z,66.65
2018-05-10T04:53:18.154Z,66.74
2018-05-10T04:54:18.179Z,66.27
2018-05-10T04:55:18.202Z,66.65
2018-05-10T04:56:18.235Z,66.74
2018-05-10T04:57:18.259Z,66.55
2018-05-10T04:58:18.289Z,66.74
2018-05-10T04:59:18.317Z,66.84
2018-05-10T05:00:18.346Z,66.74
2018-05-10T05:01:18.402Z,66.27
2018-05-10T05:02:18.411Z,65.97
2018-05-10T05:03:18.514Z,66.65
2018-05-10T05:04:18.463Z,66.94
2018-05-10T05:05:18.493Z,66.46
2018-05-10T05:06:18.514Z,66.55
2018-05-10T05:07:18.549Z,66.55
2018-05-10T05:08:18.578Z,65.88
2018-05-10T05:09:18.603Z,65.88
2018-05-10T05:10:18.636Z,65.97
2018-05-10T05:11:18.659Z,65.11
2018-05-10T05:12:18.689Z,65.59
2018-05-10T05:13:18.718Z,65.88
2018-05-10T05:14:18.739Z,65.40
2018-05-10T05:15:18.777Z,66.39
2018-05-10T05:16:18.798Z,66.78
2018-05-10T05:17:18.829Z,66.30
2018-05-10T05:18:18.854Z,66.88
2018-05-10T05:19:18.888Z,66.68
2018-05-10T05:20:18.916Z,66.30
2018-05-10T05:21:18.944Z,65.24
2018-05-10T05:22:18.970Z,65.24
2018-05-10T05:23:18.998Z,65.14
2018-05-10T05:24:19.028Z,65.17
2018-05-10T05:25:19.063Z,64.98
2018-05-10T05:26:19.084Z,65.14
2018-05-10T05:27:19.108Z,64.79
2018-05-10T05:28:19.137Z,64.59
2018-05-10T05:29:19.171Z,64.40
2018-05-10T05:30:19.198Z,64.59
2018-05-10T05:31:19.223Z,64.59
2018-05-10T05:32:19.257Z,64.40
2018-05-10T05:33:19.282Z,64.40
2018-05-10T05:34:19.316Z,64.69
2018-05-10T05:35:19.337Z,64.69
2018-05-10T05:36:19.372Z,64.25
2018-05-10T05:37:19.400Z,63.38
2018-05-10T05:38:19.424Z,63.38
2018-05-10T05:39:19.461Z,63.38
2018-05-10T05:40:19.483Z,63.57
2018-05-10T05:41:19.537Z,63.02
2018-05-10T05:42:19.542Z,62.73
2018-05-10T05:43:19.681Z,63.21
2018-05-10T05:44:19.603Z,63.02
2018-05-10T05:45:19.632Z,63.02
2018-05-10T05:46:19.662Z,62.15
2018-05-10T05:47:19.686Z,62.35
2018-05-10T05:48:19.712Z,61.77
2018-05-10T05:49:19.746Z,61.58
2018-05-10T05:50:19.776Z,60.90
2018-05-10T05:51:19.829Z,60.80
2018-05-10T05:52:19.830Z,61.13
2018-05-10T05:53:19.857Z,61.03
2018-05-10T05:54:19.888Z,60.74
2018-05-10T05:55:19.916Z,60.93
2018-05-10T05:56:19.950Z,59.97
2018-05-10T05:57:19.979Z,59.68
2018-05-10T05:58:20.008Z,60.26
2018-05-10T05:59:20.039Z,60.26
2018-05-10T06:00:20.069Z,60.35
2018-05-10T06:01:20.097Z,60.35
2018-05-10T06:02:20.132Z,59.61
2018-05-10T06:03:20.158Z,59.71
2018-05-10T06:04:20.186Z,59.61
2018-05-10T06:05:20.212Z,59.52
2018-05-10T06:06:20.247Z,59.52
2018-05-10T06:07:20.273Z,59.71
2018-05-10T06:08:20.302Z,59.90
2018-05-10T06:09:20.330Z,61.74
2018-05-10T06:10:20.356Z,60.58
2018-05-10T06:11:20.391Z,60.10
2018-05-10T06:12:20.419Z,59.23
2018-05-10T06:13:20.449Z,60.10
2018-05-10T06:14:20.472Z,59.13
2018-05-10T06:15:20.506Z,58.75
2018-05-10T06:16:20.535Z,58.94
2018-05-10T06:17:20.561Z,59.23
2018-05-10T06:18:20.590Z,59.13
2018-05-10T06:19:20.629Z,58.91
2018-05-10T06:20:20.656Z,59.23
2018-05-10T06:21:20.686Z,60.16
2018-05-10T06:22:20.715Z,60.06
2018-05-10T06:23:20.747Z,60.68
2018-05-10T06:24:20.770Z,60.06
2018-05-10T06:25:20.802Z,60.00
2018-05-10T06:26:20.840Z,60.28
2018-05-10T06:27:20.867Z,60.10
2018-05-10T06:28:20.894Z,59.32
2018-05-10T06:29:20.921Z,59.61
2018-05-10T06:30:20.952Z,59.83
2018-05-10T06:31:20.981Z,59.42
2018-05-10T06:32:21.019Z,59.35
2018-05-10T06:33:21.046Z,58.87
2018-05-10T06:34:21.077Z,58.97
2018-05-10T06:35:21.100Z,58.77
2018-05-10T06:36:21.135Z,58.97
2018-05-10T06:37:21.156Z,58.68
2018-05-10T06:38:21.184Z,58.97
2018-05-10T06:39:21.224Z,58.77
2018-05-10T06:40:21.244Z,58.29
2018-05-10T06:41:21.285Z,58.80
2018-05-10T06:42:21.306Z,59.19
2018-05-10T06:43:21.336Z,58.77
2018-05-10T06:44:21.365Z,59.16
2018-05-10T06:45:21.406Z,59.16
2018-05-10T06:46:21.426Z,59.64
2018-05-10T06:47:21.454Z,59.83
2018-05-10T06:48:21.485Z,59.74
2018-05-10T06:49:21.521Z,59.55
2018-05-10T06:50:21.547Z,58.58
2018-05-10T06:51:21.574Z,58.29
2018-05-10T06:52:21.604Z,58.12
2018-05-10T06:53:21.635Z,58.51
2018-05-10T06:54:21.670Z,59.38
2018-05-10T06:55:21.696Z,58.51
2018-05-10T06:56:21.725Z,58.61
2018-05-10T06:57:21.755Z,59.28
2018-05-10T06:58:21.784Z,58.90
2018-05-10T06:59:21.814Z,59.09
2018-05-10T07:00:21.854Z,58.03
2018-05-10T07:01:21.878Z,59.28
2018-05-10T07:02:21.904Z,58.80
2018-05-10T07:03:21.991Z,58.61
2018-05-10T07:04:21.963Z,58.70
2018-05-10T07:05:22.002Z,58.73
2018-05-10T07:06:22.026Z,59.02
2018-05-10T07:07:22.061Z,58.54
2018-05-10T07:08:22.089Z,58.76
2018-05-10T07:09:22.136Z,57.41
2018-05-10T07:10:22.153Z,57.51
2018-05-10T07:11:22.183Z,57.70
2018-05-10T07:12:22.207Z,57.51
2018-05-10T07:13:22.240Z,57.67
2018-05-10T07:14:22.267Z,58.86
2018-05-10T07:15:22.303Z,58.18
2018-05-10T07:16:22.330Z,58.57
2018-05-10T07:17:22.363Z,58.09
2018-05-10T07:18:22.386Z,58.28
2018-05-10T07:19:22.423Z,58.76
2018-05-10T07:20:22.455Z,59.15
2018-05-10T07:21:22.480Z,59.15
2018-05-10T07:22:22.516Z,58.37
2018-05-10T07:23:22.545Z,58.31
2018-05-10T07:24:22.574Z,57.63
2018-05-10T07:25:22.753Z,57.92
2018-05-10T07:26:22.638Z,57.54
2018-05-10T07:27:22.666Z,57.66
2018-05-10T07:28:22.697Z,57.82
2018-05-10T07:29:22.727Z,57.24
2018-05-10T07:30:22.762Z,56.95
2018-05-10T07:31:22.794Z,57.21
2018-05-10T07:32:22.827Z,57.70
2018-05-10T07:33:22.848Z,57.34
2018-05-10T07:34:22.878Z,56.86
2018-05-10T07:35:22.908Z,56.76
2018-05-10T07:36:22.941Z,55.53
2018-05-10T07:37:22.971Z,54.66
2018-05-10T07:38:23.002Z,54.66
2018-05-10T07:39:23.033Z,54.17
2018-05-10T07:40:23.064Z,54.66
2018-05-10T07:41:23.164Z,54.08
2018-05-10T07:42:23.124Z,54.66
2018-05-10T07:43:23.156Z,53.69
2018-05-10T07:44:23.185Z,54.27
2018-05-10T07:45:23.218Z,54.08
2018-05-10T07:46:23.247Z,54.08
2018-05-10T07:47:23.286Z,54.63
2018-05-10T07:48:23.315Z,54.53
2018-05-10T07:49:23.342Z,54.27
2018-05-10T07:50:23.367Z,54.47
2018-05-10T07:51:23.404Z,54.75
2018-05-10T07:52:23.429Z,53.99
2018-05-10T07:53:23.464Z,54.93
2018-05-10T07:54:23.495Z,54.35
2018-05-10T07:55:23.528Z,55.02
2018-05-10T07:56:23.552Z,54.93
2018-05-10T07:57:23.595Z,55.41
2018-05-10T07:58:23.613Z,55.11
2018-05-10T07:59:23.648Z,55.79
2018-05-10T08:00:23.677Z,55.31
2018-05-10T08:01:23.716Z,55.89
2018-05-10T08:02:23.779Z,55.41
2018-05-10T08:03:23.772Z,55.21
2018-05-10T08:04:23.802Z,55.60
2018-05-10T08:05:23.839Z,55.43
2018-05-10T08:06:23.863Z,54.75
2018-05-10T08:07:23.892Z,55.05
2018-05-10T08:08:23.925Z,54.47
2018-05-10T08:09:24.007Z,54.08
2018-05-10T08:10:23.987Z,54.01
2018-05-10T08:11:24.016Z,54.01
2018-05-10T08:12:24.047Z,53.33
2018-05-10T08:13:24.081Z,52.95
2018-05-10T08:14:24.112Z,52.58
2018-05-10T08:15:24.143Z,52.49
2018-05-10T08:16:24.179Z,52.78
2018-05-10T08:17:24.204Z,52.39
2018-05-10T08:18:24.244Z,51.81
2018-05-10T08:19:24.271Z,51.90
2018-05-10T08:20:24.300Z,51.45
2018-05-10T08:21:24.331Z,51.37
2018-05-10T08:22:24.364Z,52.15
2018-05-10T08:23:24.385Z,51.84
2018-05-10T08:24:24.420Z,52.51
2018-05-10T08:25:24.452Z,52.22
2018-05-10T08:26:24.485Z,52.20
2018-05-10T08:27:24.517Z,52.10
2018-05-10T08:28:24.551Z,52.29
2018-05-10T08:29:24.577Z,52.20
2018-05-10T08:30:24.612Z,52.58
2018-05-10T08:31:24.644Z,52.20
2018-05-10T08:32:24.671Z,53.55
2018-05-10T08:33:24.703Z,53.36
2018-05-10T08:34:24.732Z,53.17
2018-05-10T08:35:24.761Z,53.55
2018-05-10T08:36:24.887Z,53.17
2018-05-10T08:37:24.838Z,53.36
2018-05-10T08:38:24.863Z,53.26
2018-05-10T08:39:24.894Z,52.80
2018-05-10T08:40:24.920Z,52.90
2018-05-10T08:41:24.954Z,53.77
2018-05-10T08:42:24.985Z,53.39
2018-05-10T08:43:25.018Z,53.87
2018-05-10T08:44:25.047Z,53.39
2018-05-10T08:45:25.087Z,54.26
2018-05-10T08:46:25.113Z,53.97
2018-05-10T08:47:25.140Z,53.51
2018-05-10T08:48:25.176Z,52.51
2018-05-10T08:49:25.205Z,54.26
2018-05-10T08:50:25.232Z,53.87
2018-05-10T08:51:25.272Z,54.26
2018-05-10T08:52:25.305Z,53.39
2018-05-10T08:53:25.339Z,52.71
2018-05-10T08:54:25.359Z,53.19
2018-05-10T08:55:25.390Z,53.00
2018-05-10T08:56:25.420Z,52.22
2018-05-10T08:57:25.463Z,52.61
2018-05-10T08:58:25.489Z,52.44
2018-05-10T08:59:25.518Z,52.25
2018-05-10T09:00:25.544Z,52.44
2018-05-10T09:01:25.580Z,51.96
2018-05-10T09:02:25.608Z,51.67
2018-05-10T09:03:25.641Z,52.34
2018-05-10T09:04:25.675Z,51.21
2018-05-10T09:05:25.707Z,50.72
2018-05-10T09:06:25.753Z,50.24
2018-05-10T09:07:25.774Z,50.79
2018-05-10T09:08:25.798Z,51.67
2018-05-10T09:09:25.832Z,51.86
2018-05-10T09:10:25.866Z,52.15
2018-05-10T09:11:25.897Z,52.32
2018-05-10T09:12:25.928Z,52.15
2018-05-10T09:13:25.967Z,52.64
2018-05-10T09:14:26.000Z,52.42
2018-05-10T09:15:26.018Z,52.29
2018-05-10T09:16:26.055Z,52.97
2018-05-10T09:17:26.084Z,53.36
2018-05-10T09:18:26.115Z,54.43
2018-05-10T09:19:26.143Z,53.94
2018-05-10T09:20:26.173Z,54.33
2018-05-10T09:21:26.208Z,54.23
2018-05-10T09:22:26.238Z,54.03
2018-05-10T09:23:26.278Z,54.03
2018-05-10T09:24:26.305Z,54.71
2018-05-10T09:25:26.337Z,54.52
2018-05-10T09:26:26.363Z,54.52
2018-05-10T09:27:26.393Z,54.43
2018-05-10T09:28:26.429Z,55.20
2018-05-10T09:29:26.457Z,54.23
2018-05-10T09:30:26.504Z,53.75
2018-05-10T09:31:26.611Z,52.80
2018-05-10T09:32:26.554Z,54.13
2018-05-10T09:33:26.583Z,54.33
2018-05-10T09:34:26.621Z,54.33
2018-05-10T09:35:26.647Z,54.13
2018-05-10T09:36:26.680Z,54.06
2018-05-10T09:37:26.713Z,53.58
2018-05-10T09:38:26.737Z,53.29
2018-05-10T09:39:26.873Z,53.51
2018-05-10T09:40:26.803Z,52.44
2018-05-10T09:41:26.833Z,52.08
2018-05-10T09:42:26.869Z,51.81
2018-05-10T09:43:26.898Z,51.53
2018-05-10T09:44:26.931Z,50.94
2018-05-10T09:45:26.963Z,50.74
2018-05-10T09:46:26.992Z,51.31
2018-05-10T09:47:27.031Z,51.50
2018-05-10T09:48:27.054Z,51.91
2018-05-10T09:49:27.091Z,51.81
2018-05-10T09:50:27.117Z,51.72
2018-05-10T09:51:27.148Z,52.30
2018-05-10T09:52:27.182Z,51.11
2018-05-10T09:53:27.218Z,49.77
2018-05-10T09:54:27.247Z,51.04
2018-05-10T09:55:27.279Z,51.43
2018-05-10T09:56:27.316Z,51.62
2018-05-10T09:57:27.346Z,51.14
2018-05-10T09:58:27.372Z,51.53
2018-05-10T09:59:27.411Z,51.91
2018-05-10T10:00:27.440Z,52.11
2018-05-10T10:01:27.475Z,51.69
2018-05-10T10:02:27.503Z,51.98
2018-05-10T10:03:27.532Z,51.33
2018-05-10T10:04:27.573Z,50.84
2018-05-10T10:05:27.596Z,52.28
2018-05-10T10:06:27.637Z,51.79
2018-05-10T10:07:27.663Z,52.08
2018-05-10T10:08:27.700Z,51.79
2018-05-10T10:09:27.737Z,51.31
2018-05-10T10:10:27.756Z,51.31
2018-05-10T10:11:27.789Z,52.56
2018-05-10T10:12:27.817Z,52.44
2018-05-10T10:13:27.856Z,52.34
2018-05-10T10:14:27.887Z,52.15
2018-05-10T10:15:27.913Z,52.28
2018-05-10T10:16:27.946Z,51.79
2018-05-10T10:17:27.977Z,51.31
2018-05-10T10:18:28.017Z,51.89
2018-05-10T10:19:28.045Z,51.72
2018-05-10T10:20:28.072Z,51.06
2018-05-10T10:21:28.106Z,50.48
2018-05-10T10:22:28.139Z,50.29
2018-05-10T10:23:28.166Z,50.12
2018-05-10T10:24:28.204Z,50.21
2018-05-10T10:25:28.235Z,49.92
2018-05-10T10:26:28.265Z,49.73
2018-05-10T10:27:28.331Z,48.66
2018-05-10T10:28:28.327Z,48.18
2018-05-10T10:29:28.359Z,48.20
2018-05-10T10:30:28.392Z,47.32
2018-05-10T10:31:28.436Z,48.95
2018-05-10T10:32:28.539Z,49.05
2018-05-10T10:33:28.486Z,48.18
2018-05-10T10:34:28.598Z,48.18
2018-05-10T10:35:28.560Z,48.75
2018-05-10T10:36:28.581Z,48.37
2018-05-10T10:37:28.619Z,47.40
2018-05-10T10:38:28.648Z,49.44
2018-05-10T10:39:28.681Z,48.37
2018-05-10T10:40:28.714Z,46.74
2018-05-10T10:41:28.745Z,47.23
2018-05-10T10:42:28.774Z,47.81
2018-05-10T10:43:28.807Z,47.34
2018-05-10T10:44:28.848Z,46.47
2018-05-10T10:45:28.922Z,46.08
2018-05-10T10:46:28.900Z,45.98
2018-05-10T10:47:28.934Z,45.01
2018-05-10T10:48:28.971Z,45.31
2018-05-10T10:49:29.004Z,45.11
2018-05-10T10:50:29.032Z,44.74
2018-05-10T10:51:29.062Z,44.26
2018-05-10T10:52:29.100Z,43.58
2018-05-10T10:53:29.133Z,43.43
2018-05-10T10:54:29.168Z,42.55
2018-05-10T10:55:29.195Z,41.79
2018-05-10T10:56:29.230Z,42.00
2018-05-10T10:57:29.255Z,40.93
2018-05-10T10:58:29.299Z,40.83
2018-05-10T10:59:29.331Z,42.20
2018-05-10T11:00:29.354Z,40.83
2018-05-10T11:01:29.386Z,41.22
2018-05-10T11:02:29.428Z,40.76
2018-05-10T11:03:29.454Z,40.48
2018-05-10T11:04:29.491Z,39.26
2018-05-10T11:05:29.526Z,37.34
2018-05-10T11:06:29.553Z,35.93
2018-05-10T11:07:29.590Z,34.00
2018-05-10T11:08:29.639Z,31.89
2018-05-10T11:09:29.669Z,30.82
2018-05-10T11:10:29.700Z,30.60
2018-05-10T11:11:29.735Z,30.45
2018-05-10T11:12:29.770Z,28.72
2018-05-10T11:13:29.806Z,27.67
2018-05-10T11:14:29.841Z,26.89
2018-05-10T11:15:29.875Z,25.81
2018-05-10T11:16:29.915Z,26.39
2018-05-10T11:17:29.950Z,25.82
2018-05-10T11:18:29.985Z,25.15
2018-05-10T11:19:30.025Z,23.97
2018-05-10T11:20:30.058Z,25.32
2018-05-10T11:21:30.097Z,24.54
2018-05-10T11:22:30.154Z,24.75
2018-05-10T11:23:30.180Z,24.46
2018-05-10T11:24:30.203Z,23.98
2018-05-10T11:25:30.250Z,23.11
2018-05-10T11:26:30.283Z,22.72
2018-05-10T11:27:30.329Z,22.52
2018-05-10T11:28:30.363Z,22.23
2018-05-10T11:29:30.393Z,23.94
2018-05-10T11:30:30.433Z,27.09
2018-05-10T11:31:30.473Z,29.77
2018-05-10T11:32:30.512Z,31.68
2018-05-10T11:33:30.544Z,33.12
2018-05-10T11:34:30.578Z,34.65
2018-05-10T11:35:30.623Z,35.90
2018-05-10T11:36:30.656Z,37.46
2018-05-10T11:37:30.688Z,37.73
2018-05-10T11:38:30.727Z,37.71
2018-05-10T11:39:30.767Z,38.87
2018-05-10T11:40:30.799Z,40.03
2018-05-10T11:41:30.839Z,40.42
2018-05-10T11:42:30.876Z,40.21
2018-05-10T11:43:30.904Z,40.60
2018-05-10T11:44:30.949Z,40.70
2018-05-10T11:45:30.977Z,41.94
2018-05-10T11:46:31.010Z,41.94
2018-05-10T11:47:31.043Z,42.31
2018-05-10T11:48:31.082Z,41.53
2018-05-10T11:49:31.125Z,41.93
2018-05-10T11:50:31.146Z,42.41
2018-05-10T11:51:31.188Z,42.31
2018-05-10T11:52:31.228Z,42.21
2018-05-10T11:53:31.252Z,42.99
2018-05-10T11:54:31.287Z,43.16
2018-05-10T11:55:31.321Z,42.97
2018-05-10T11:56:31.354Z,44.04
2018-05-10T11:57:31.382Z,44.21
2018-05-10T11:58:31.417Z,45.48
2018-05-10T11:59:31.452Z,44.21
2018-05-10T12:00:31.492Z,43.92
2018-05-10T12:01:31.518Z,44.70
2018-05-10T12:02:31.601Z,44.99
2018-05-10T12:03:31.596Z,45.67
2018-05-10T12:04:31.616Z,43.54
2018-05-10T12:05:31.647Z,43.82
2018-05-10T12:06:31.687Z,44.60
2018-05-10T12:07:31.719Z,47.32
2018-05-10T12:08:31.748Z,50.80
2018-05-10T12:09:31.782Z,54.20
2018-05-10T12:10:31.811Z,55.04
2018-05-10T12:11:31.860Z,52.33
2018-05-10T12:12:31.881Z,52.13
2018-05-10T12:13:31.910Z,51.65
2018-05-10T12:14:31.950Z,54.27
2018-05-10T12:15:31.974Z,57.73
2018-05-10T12:16:32.009Z,53.56
2018-05-10T12:17:32.038Z,55.73
2018-05-10T12:18:32.073Z,54.94
2018-05-10T12:19:32.108Z,59.22
2018-05-10T12:20:32.223Z,60.00
2018-05-10T12:21:32.172Z,58.73
2018-05-10T12:22:32.198Z,57.67
2018-05-10T12:23:32.234Z,53.56
2018-05-10T12:24:32.268Z,49.39
2018-05-10T12:25:32.337Z,52.20
2018-05-10T12:26:32.341Z,51.33
2018-05-10T12:27:32.365Z,51.14
2018-05-10T12:28:32.397Z,52.30
2018-05-10T12:29:32.426Z,53.37
2018-05-10T12:30:32.577Z,51.93
2018-05-10T12:31:32.487Z,51.84
2018-05-10T12:32:32.519Z,52.23
2018-05-10T12:33:32.549Z,52.62
2018-05-10T12:34:32.584Z,51.84
2018-05-10T12:35:32.614Z,50.94
2018-05-10T12:36:32.646Z,50.07
2018-05-10T12:37:32.685Z,49.51
2018-05-10T12:38:32.710Z,52.13
2018-05-10T12:39:32.740Z,51.16
2018-05-10T12:40:32.772Z,49.12
2018-05-10T12:41:32.871Z,48.42
2018-05-10T12:42:32.832Z,49.29
2018-05-10T12:43:32.870Z,49.56
2018-05-10T12:44:32.899Z,50.72
2018-05-10T12:45:32.938Z,51.98
2018-05-10T12:46:32.972Z,55.96
2018-05-10T12:47:32.992Z,57.68
2018-05-10T12:48:33.022Z,58.33
2018-05-10T12:49:33.060Z,60.24
2018-05-10T12:50:33.089Z,61.79
2018-05-10T12:51:33.125Z,61.85
2018-05-10T12:52:33.153Z,62.21